Guyton, GA

04:01 PM EDT del 29 Luglio 2015 (GMT -0400)
Stilson-Ellabell | | Change Station
CLOSE
Current Station
Stazione meteo personale
Location: Brooklet, GA
Altitudine: 95 ft
Stazioni meteo nelle vicinanze

Alt. 95 ft 32.24 °N, 81.53 °W | Updated 39 seconds ago

Parzialmente nuvoloso
Parzialmente nuvoloso
95.3 °F
Sembra 112 °F
N
0.0
Vento Variabile Vento da SE
Gusts 0.0 mph

Oggi
Massima -- | Minima -- °F
--% Possibilità di precip.
Ieri
Massima -- | Minima -- °F
Precip. -- in
6:38 AM 8:25 PM
Gobba a ponente, 96% visible
Pressione 29.92 in
Visibilità 10.0 miglia
Nuvole Alcuni 3500 ft
Nubi sparse 14000 ft
Nubi sparse 25000 ft
Indice di calore 112 °F
Punto di rugiada 78 °F
Umidità 58%
Piovosità 0.00 in
Spessore del manto nevoso Non disponibile.
Raggi UV 8 fuori da 12
Polline 3.20 fuori da 12
Qualità dell'aria Non disponibile.
Flu Activity Non disponibile.
METAR KSAV 291953Z 05007KT 10SM FEW035 SCT140 SCT250 34/19 A2992 RMK AO2 SLP130 T03390194

More Conditions Fewer Conditions

Pressione 29.92 in
Visibilità 10.0 miglia
Nuvole Alcuni 3500 ft
Nubi sparse 14000 ft
Nubi sparse 25000 ft
Indice di calore 112 °F
Punto di rugiada 78 °F
Umidità 58%
Piovosità 0.00 in
Spessore del manto nevoso Non disponibile.
Raggi UV 8 fuori da 12
Polline 3.20 fuori da 12
Qualità dell'aria Non disponibile.
Flu Activity Non disponibile.
METAR KSAV 291953Z 05007KT 10SM FEW035 SCT140 SCT250 34/19 A2992 RMK AO2 SLP130 T03390194

More Conditions Fewer Conditions

10-Day Weather Forecast

×

Almanac

Astronomia

Jul. 29, 2015 Alba Tramonto
Ora attuale
Crepuscolo civile
Crepuscolo nautico
Crepuscolo astronomico
Luna
Estensione della luce visibile
Lunghezza del giorno
Tomorrow will be .
, % of the Moon is Illuminated

Gli estremi di oggi

State Highs State Lows

Community

WunderPhotos

Upload Photos

1,842,157 foto caricate!

WunderBlogs® & News

Nearby

Qualità dell'aria

  Qualità dell'aria Indice AQ Inquinante
Not available.

Profondità neve

Stazione Profondità Altitudine

Attività sismica

Città  Distanza Mag. Data & Ora
Minimo Magnitudo Mostrato è 2.5.

Temperature delle acque costiere

Località Temperatura

Stations

Stazioni meteo nelle vicinanze

Ubicazione della stazione Temp. Raffreddamento del vento Punto di rugiada Umidità Vento Precip. Alt. Aggiornato Tipo